Time;durP1;ratioP1;P1;durP2;ratioP2;P2;SDS_P1;SDS_P2;PMS_P1;PMS_P2;Temp;Humidity;BMP_temperature;BMP_pressure;BME280_temperature;BME280_humidity;BME280_pressure;Samples;Min_cycle;Max_cycle;Signal;HPM_P1;HPM_P2
2021/07/04 00:00:37;;;;;;;18.75;7.35;;;;;;;;;;5075062;28;20380;-88
2021/07/04 00:03:03;;;;;;;13.48;6.65;;;;;;;;;;5074933;28;20016;-89
2021/07/04 00:05:39;;;;;;;14.10;6.95;;;;;;;;;;5075094;28;20333;-88
2021/07/04 00:08:07;;;;;;;13.65;7.32;;;;;;;;;;5063516;28;20434;-89
2021/07/04 00:10:34;;;;;;;13.07;6.38;;;;;;;;;;5074859;28;20029;-89
2021/07/04 00:12:59;;;;;;;13.65;7.07;;;;;;;;;;5060619;28;20020;-89
2021/07/04 00:15:26;;;;;;;11.90;6.13;;;;;;;;;;5074726;28;20069;-89
2021/07/04 00:17:52;;;;;;;13.10;7.45;;;;;;;;;;5074620;28;20025;-89
2021/07/04 00:20:18;;;;;;;13.38;6.95;;;;;;;;;;5064834;28;20360;-89
2021/07/04 00:22:44;;;;;;;10.07;6.70;;;;;;;;;;5054365;28;20046;-89
2021/07/04 00:25:10;;;;;;;11.93;6.22;;;;;;;;;;5054678;28;20116;-89
2021/07/04 00:27:36;;;;;;;11.77;6.13;;;;;;;;;;5054474;28;20029;-89
2021/07/04 00:30:02;;;;;;;19.25;6.45;;;;;;;;;;5054300;28;20023;-88
2021/07/04 00:32:27;;;;;;;99.90;7.38;;;;;;;;;;5054393;28;20019;-89
2021/07/04 00:34:52;;;;;;;176.90;6.88;;;;;;;;;;5054497;28;20528;-88
2021/07/04 00:37:18;;;;;;;25.67;8.65;;;;;;;;;;5087884;28;20017;-89
2021/07/04 00:39:43;;;;;;;29.52;6.30;;;;;;;;;;5054386;28;20352;-89
2021/07/04 00:42:10;;;;;;;33.80;5.07;;;;;;;;;;5053953;28;20025;-90
2021/07/04 00:44:35;;;;;;;33.03;4.97;;;;;;;;;;5054339;28;20051;-89
2021/07/04 00:47:00;;;;;;;71.32;6.00;;;;;;;;;;5054248;28;20468;-89
2021/07/04 00:49:26;;;;;;;49.88;4.82;;;;;;;;;;5054035;28;20059;-88
2021/07/04 00:51:51;;;;;;;44.90;4.95;;;;;;;;;;5054079;28;20021;-89
2021/07/04 00:54:16;;;;;;;23.55;4.38;;;;;;;;;;5054089;28;20476;-89
2021/07/04 00:56:42;;;;;;;26.88;4.18;;;;;;;;;;5054129;28;20013;-90
2021/07/04 00:59:07;;;;;;;43.30;4.22;;;;;;;;;;5054009;28;20017;-89
2021/07/04 01:01:34;;;;;;;32.53;3.72;;;;;;;;;;5054117;28;20021;-89
2021/07/04 01:03:59;;;;;;;23.98;6.03;;;;;;;;;;5053073;28;20082;-90
2021/07/04 01:06:25;;;;;;;9.35;4.00;;;;;;;;;;5053586;28;20024;-90
2021/07/04 01:08:50;;;;;;;11.45;3.00;;;;;;;;;;5053760;28;20021;-89
2021/07/04 01:11:15;;;;;;;12.18;4.28;;;;;;;;;;5053682;28;20537;-89
2021/07/04 01:13:40;;;;;;;25.80;4.90;;;;;;;;;;5053880;28;20019;-89
2021/07/04 01:16:06;;;;;;;30.85;3.88;;;;;;;;;;5053789;28;20027;-89
2021/07/04 01:18:31;;;;;;;37.40;3.75;;;;;;;;;;5053774;28;20075;-90
2021/07/04 01:20:58;;;;;;;25.42;3.45;;;;;;;;;;5053899;28;20071;-90
2021/07/04 01:23:24;;;;;;;14.90;3.03;;;;;;;;;;5053734;28;20108;-89
2021/07/04 01:25:52;;;;;;;23.80;3.53;;;;;;;;;;5053734;28;20139;-90
2021/07/04 01:28:17;;;;;;;55.13;4.68;;;;;;;;;;5053293;28;20330;-89
2021/07/04 01:30:43;;;;;;;46.70;4.30;;;;;;;;;;5054883;28;20066;-89
2021/07/04 01:33:09;;;;;;;10.93;4.18;;;;;;;;;;5053205;28;20035;-89
2021/07/04 01:35:34;;;;;;;20.45;6.03;;;;;;;;;;5053399;28;20025;-90
2021/07/04 01:38:00;;;;;;;16.58;7.65;;;;;;;;;;5053388;28;20025;-89
2021/07/04 01:40:25;;;;;;;12.32;7.93;;;;;;;;;;5053161;28;20461;-89
2021/07/04 01:42:51;;;;;;;13.43;8.13;;;;;;;;;;5053350;28;20025;-89
2021/07/04 01:45:17;;;;;;;11.45;8.38;;;;;;;;;;5052967;28;20028;-89
2021/07/04 01:47:43;;;;;;;15.57;9.13;;;;;;;;;;5053304;28;20102;-90
2021/07/04 01:50:10;;;;;;;14.90;9.82;;;;;;;;;;5053404;28;20468;-89
2021/07/04 01:52:36;;;;;;;14.05;9.20;;;;;;;;;;5052866;28;20020;-89
2021/07/04 01:55:03;;;;;;;14.07;7.30;;;;;;;;;;5053126;28;20021;-89
2021/07/04 01:57:28;;;;;;;12.35;7.60;;;;;;;;;;5052674;28;20028;-89
2021/07/04 01:59:55;;;;;;;13.85;8.43;;;;;;;;;;5052993;28;20025;-89
2021/07/04 02:02:20;;;;;;;14.85;9.45;;;;;;;;;;5052948;28;20024;-89
2021/07/04 02:04:46;;;;;;;14.05;9.02;;;;;;;;;;5053866;28;20043;-90
2021/07/04 02:07:15;;;;;;;18.50;8.25;;;;;;;;;;5052849;28;20036;-89
2021/07/04 02:09:47;;;;;;;12.60;8.88;;;;;;;;;;5039236;28;20016;-89
2021/07/04 02:12:14;;;;;;;13.77;8.00;;;;;;;;;;5052707;28;20419;-89
2021/07/04 02:14:39;;;;;;;17.80;8.02;;;;;;;;;;5054035;28;20025;-90
2021/07/04 02:17:05;;;;;;;11.75;8.02;;;;;;;;;;5053845;28;20143;-90
2021/07/04 02:19:31;;;;;;;12.43;9.38;;;;;;;;;;5052516;28;20167;-89
2021/07/04 02:21:57;;;;;;;13.25;8.85;;;;;;;;;;5052549;28;20017;-89
2021/07/04 02:24:22;;;;;;;14.68;9.32;;;;;;;;;;5052499;28;20491;-89
2021/07/04 02:26:47;;;;;;;16.77;9.77;;;;;;;;;;5052570;28;20020;-90
2021/07/04 02:29:12;;;;;;;14.18;9.52;;;;;;;;;;5052349;28;20025;-90
2021/07/04 02:31:38;;;;;;;15.20;9.00;;;;;;;;;;5052225;28;20020;-89
2021/07/04 02:34:03;;;;;;;12.00;8.65;;;;;;;;;;5052425;28;20025;-90
2021/07/04 02:36:28;;;;;;;14.27;9.80;;;;;;;;;;5052429;28;20450;-89
2021/07/04 02:38:53;;;;;;;18.80;10.85;;;;;;;;;;5052022;28;20472;-90
2021/07/04 02:41:18;;;;;;;18.00;11.02;;;;;;;;;;5052333;28;20082;-90
2021/07/04 02:43:43;;;;;;;20.52;12.05;;;;;;;;;;5052103;28;20028;-90
2021/07/04 02:46:09;;;;;;;25.23;11.95;;;;;;;;;;5053367;28;20487;-89
2021/07/04 02:48:34;;;;;;;20.27;11.77;;;;;;;;;;5085537;28;20028;-89
2021/07/04 02:50:59;;;;;;;17.10;11.25;;;;;;;;;;5052112;28;20381;-90
2021/07/04 02:53:24;;;;;;;23.30;10.63;;;;;;;;;;5085492;28;20024;-90
2021/07/04 02:55:49;;;;;;;23.90;12.48;;;;;;;;;;5052042;28;20021;-90
2021/07/04 02:58:15;;;;;;;28.40;12.48;;;;;;;;;;5052088;28;20028;-89
2021/07/04 03:00:43;;;;;;;20.42;10.90;;;;;;;;;;5053142;28;20020;-90
2021/07/04 03:03:09;;;;;;;19.58;11.18;;;;;;;;;;5052527;28;20029;-90
2021/07/04 03:05:34;;;;;;;26.15;11.32;;;;;;;;;;5085305;28;20048;-90
2021/07/04 03:07:59;;;;;;;27.45;11.55;;;;;;;;;;5052001;28;20037;-89
2021/07/04 03:10:24;;;;;;;18.15;11.23;;;;;;;;;;5052717;28;20071;-89
2021/07/04 03:12:50;;;;;;;31.50;12.63;;;;;;;;;;5051488;28;20043;-90
2021/07/04 03:15:16;;;;;;;20.40;11.30;;;;;;;;;;5053090;28;20487;-89
2021/07/04 03:17:41;;;;;;;19.98;11.57;;;;;;;;;;5051628;28;20464;-90
2021/07/04 03:20:07;;;;;;;24.23;11.23;;;;;;;;;;5051495;28;20026;-89
2021/07/04 03:22:32;;;;;;;21.35;12.43;;;;;;;;;;5085116;28;20074;-88
2021/07/04 03:24:58;;;;;;;23.88;13.40;;;;;;;;;;5051489;28;20025;-89
2021/07/04 03:27:23;;;;;;;26.85;13.30;;;;;;;;;;5054406;28;20055;-89
2021/07/04 03:29:48;;;;;;;44.95;18.52;;;;;;;;;;5089091;28;20017;-89
2021/07/04 03:32:13;;;;;;;40.45;16.95;;;;;;;;;;5055653;28;20013;-89
2021/07/04 03:34:39;;;;;;;70.03;18.55;;;;;;;;;;5088727;28;20024;-89
2021/07/04 03:37:04;;;;;;;112.13;21.48;;;;;;;;;;5055548;28;20017;-89
2021/07/04 03:39:29;;;;;;;151.05;20.42;;;;;;;;;;5056914;28;20066;-89
2021/07/04 03:41:54;;;;;;;242.00;22.15;;;;;;;;;;5055568;28;20162;-89
2021/07/04 03:44:20;;;;;;;195.40;21.65;;;;;;;;;;5055522;28;20029;-89
2021/07/04 03:46:45;;;;;;;161.73;19.90;;;;;;;;;;5055409;28;20384;-89
2021/07/04 03:49:10;;;;;;;198.40;23.63;;;;;;;;;;5088852;28;20537;-90
2021/07/04 03:51:36;;;;;;;172.55;21.83;;;;;;;;;;5089080;28;20104;-89
2021/07/04 03:54:01;;;;;;;169.57;20.80;;;;;;;;;;5056567;28;20070;-89
2021/07/04 03:56:26;;;;;;;217.20;22.77;;;;;;;;;;5056692;28;20496;-89
2021/07/04 03:58:51;;;;;;;203.65;22.30;;;;;;;;;;5088721;28;20064;-90
2021/07/04 04:01:18;;;;;;;145.57;23.67;;;;;;;;;;5088933;28;20025;-90
2021/07/04 04:03:44;;;;;;;168.65;23.95;;;;;;;;;;5054749;28;20033;-89
2021/07/04 04:06:09;;;;;;;146.52;24.52;;;;;;;;;;5055067;28;20448;-89
2021/07/04 04:08:34;;;;;;;141.25;22.10;;;;;;;;;;5088522;28;20076;-89
2021/07/04 04:11:00;;;;;;;134.75;22.88;;;;;;;;;;5088476;28;20075;-89
2021/07/04 04:13:25;;;;;;;160.63;24.50;;;;;;;;;;5088524;28;20052;-89
2021/07/04 04:15:50;;;;;;;165.35;25.88;;;;;;;;;;5088260;28;20117;-90
2021/07/04 04:18:18;;;;;;;183.55;32.25;;;;;;;;;;5055942;28;20025;-89
2021/07/04 04:20:43;;;;;;;172.13;29.90;;;;;;;;;;5054945;28;20032;-89
2021/07/04 04:23:08;;;;;;;129.80;28.98;;;;;;;;;;5054752;28;20376;-90
2021/07/04 04:25:33;;;;;;;244.65;33.28;;;;;;;;;;5088327;28;20040;-89
2021/07/04 04:27:58;;;;;;;220.65;35.25;;;;;;;;;;5084489;28;20169;-89
2021/07/04 04:30:23;;;;;;;183.65;32.70;;;;;;;;;;5054585;28;20473;-89
2021/07/04 04:32:49;;;;;;;214.70;34.08;;;;;;;;;;5054654;28;20021;-90
2021/07/04 04:35:14;;;;;;;184.38;36.92;;;;;;;;;;5054481;28;20553;-89
2021/07/04 04:37:39;;;;;;;198.55;34.75;;;;;;;;;;5055676;28;20461;-89
2021/07/04 04:40:05;;;;;;;212.63;36.58;;;;;;;;;;5088015;28;20024;-90
2021/07/04 04:42:30;;;;;;;212.27;39.40;;;;;;;;;;5088144;28;20109;-89
2021/07/04 04:44:56;;;;;;;136.52;37.40;;;;;;;;;;5087874;28;20037;-89
2021/07/04 04:47:21;;;;;;;192.50;37.65;;;;;;;;;;5055518;28;20048;-90
2021/07/04 04:49:46;;;;;;;174.40;39.03;;;;;;;;;;5087802;28;20043;-89
2021/07/04 04:52:11;;;;;;;140.20;37.78;;;;;;;;;;5087797;28;20496;-90
2021/07/04 04:54:36;;;;;;;144.20;37.67;;;;;;;;;;5055416;28;20005;-89
2021/07/04 04:57:08;;;;;;;115.60;36.10;;;;;;;;;;5053773;28;20029;-89
2021/07/04 04:59:34;;;;;;;123.37;37.77;;;;;;;;;;5087828;28;20033;-90
2021/07/04 05:01:59;;;;;;;129.18;36.47;;;;;;;;;;5055311;28;20092;-90
2021/07/04 05:04:24;;;;;;;128.63;38.60;;;;;;;;;;5087502;28;20469;-89
2021/07/04 05:06:49;;;;;;;127.65;39.17;;;;;;;;;;5053846;28;20048;-89
2021/07/04 05:09:15;;;;;;;116.78;39.72;;;;;;;;;;5087196;28;20080;-89
2021/07/04 05:11:40;;;;;;;110.63;38.25;;;;;;;;;;5087545;28;20037;-89
2021/07/04 05:14:05;;;;;;;103.13;38.28;;;;;;;;;;5053830;28;20036;-90
2021/07/04 05:16:31;;;;;;;96.30;35.60;;;;;;;;;;5055085;28;20013;-89
2021/07/04 05:18:56;;;;;;;96.53;36.38;;;;;;;;;;5087903;28;20028;-90
2021/07/04 05:21:21;;;;;;;95.47;39.22;;;;;;;;;;5086661;28;20464;-89
2021/07/04 05:23:47;;;;;;;95.07;37.95;;;;;;;;;;5053996;28;20031;-90
2021/07/04 05:26:12;;;;;;;104.68;38.65;;;;;;;;;;5053437;28;20029;-89
2021/07/04 05:28:39;;;;;;;106.75;36.90;;;;;;;;;;5086947;28;20013;-89
2021/07/04 05:31:04;;;;;;;88.00;33.83;;;;;;;;;;5087146;28;20017;-89
2021/07/04 05:33:30;;;;;;;103.25;37.08;;;;;;;;;;5086884;28;20035;-89
2021/07/04 05:35:55;;;;;;;96.45;35.03;;;;;;;;;;5086994;28;20579;-90
2021/07/04 05:38:22;;;;;;;90.65;33.63;;;;;;;;;;5053183;28;20388;-90
2021/07/04 05:40:48;;;;;;;85.85;33.92;;;;;;;;;;5053380;28;20024;-90
2021/07/04 05:43:14;;;;;;;89.68;33.22;;;;;;;;;;5086735;28;20017;-89
2021/07/04 05:45:39;;;;;;;88.55;34.42;;;;;;;;;;5085855;28;20020;-89
2021/07/04 05:48:05;;;;;;;90.47;34.00;;;;;;;;;;5086466;28;20021;-89
2021/07/04 05:50:30;;;;;;;87.63;33.50;;;;;;;;;;5080058;28;20017;-89
2021/07/04 05:52:56;;;;;;;92.57;34.53;;;;;;;;;;5054844;28;20025;-89
2021/07/04 05:55:22;;;;;;;102.43;35.33;;;;;;;;;;5052824;28;20027;-89
2021/07/04 05:57:47;;;;;;;120.35;37.03;;;;;;;;;;5086532;28;20020;-89
2021/07/04 06:00:13;;;;;;;107.35;33.88;;;;;;;;;;5086421;28;20017;-90
2021/07/04 06:02:38;;;;;;;100.55;30.92;;;;;;;;;;5086390;28;20372;-89
2021/07/04 06:05:03;;;;;;;124.38;38.60;;;;;;;;;;5052783;28;20028;-90
2021/07/04 06:07:29;;;;;;;117.05;37.83;;;;;;;;;;5052649;28;20027;-90
2021/07/04 06:09:54;;;;;;;122.10;39.85;;;;;;;;;;5053026;28;20032;-90
2021/07/04 06:12:19;;;;;;;100.35;32.50;;;;;;;;;;5086199;28;20017;-89
2021/07/04 06:14:44;;;;;;;95.78;29.23;;;;;;;;;;5085572;28;20112;-90
2021/07/04 06:17:10;;;;;;;129.57;40.00;;;;;;;;;;5052591;28;20476;-89
2021/07/04 06:19:35;;;;;;;104.35;33.50;;;;;;;;;;5052760;28;20051;-89
2021/07/04 06:22:01;;;;;;;128.43;42.15;;;;;;;;;;5086169;28;20429;-90
2021/07/04 06:24:26;;;;;;;124.93;42.63;;;;;;;;;;5052365;28;20502;-89
2021/07/04 06:26:51;;;;;;;125.03;41.30;;;;;;;;;;5052401;28;20100;-89
2021/07/04 06:29:16;;;;;;;125.35;40.50;;;;;;;;;;5052251;28;20074;-89
2021/07/04 06:31:42;;;;;;;118.30;38.90;;;;;;;;;;5053153;28;20019;-89
2021/07/04 06:34:07;;;;;;;110.10;37.35;;;;;;;;;;5084373;28;20087;-89
2021/07/04 06:36:32;;;;;;;122.10;39.15;;;;;;;;;;5052327;28;20021;-89
2021/07/04 06:38:57;;;;;;;116.65;37.35;;;;;;;;;;5053150;28;20021;-89
2021/07/04 06:41:23;;;;;;;113.20;40.45;;;;;;;;;;5086006;28;20021;-89
2021/07/04 06:43:48;;;;;;;101.38;39.05;;;;;;;;;;5077373;28;20063;-90
2021/07/04 06:46:13;;;;;;;103.18;38.58;;;;;;;;;;5052000;28;20048;-89
2021/07/04 06:48:39;;;;;;;101.22;37.83;;;;;;;;;;5050862;28;20086;-89
2021/07/04 06:51:05;;;;;;;107.32;39.50;;;;;;;;;;5051728;28;20427;-89
2021/07/04 06:53:30;;;;;;;101.07;39.78;;;;;;;;;;5042313;28;20032;-89
2021/07/04 06:55:55;;;;;;;119.90;44.75;;;;;;;;;;5052824;28;20021;-90
2021/07/04 06:58:20;;;;;;;104.85;42.67;;;;;;;;;;5087577;28;20025;-91
2021/07/04 07:00:45;;;;;;;94.45;38.97;;;;;;;;;;5087040;28;20111;-91
2021/07/04 07:03:18;;;;;;;104.93;42.92;;;;;;;;;;5054116;28;20108;-91
2021/07/04 07:05:54;;;;;;;109.45;42.40;;;;;;;;;;5053167;28;20033;-91
2021/07/04 07:08:19;;;;;;;106.07;42.90;;;;;;;;;;5053259;28;20047;-89
2021/07/04 07:10:44;;;;;;;98.97;41.92;;;;;;;;;;5051849;28;20104;-90
2021/07/04 07:13:10;;;;;;;103.28;44.30;;;;;;;;;;5051924;28;20029;-89
2021/07/04 07:15:35;;;;;;;105.55;43.08;;;;;;;;;;5085262;28;20020;-90
2021/07/04 07:18:00;;;;;;;103.95;43.97;;;;;;;;;;5051838;28;20078;-90
2021/07/04 07:20:26;;;;;;;116.30;47.08;;;;;;;;;;5085400;28;20089;-89
2021/07/04 07:22:51;;;;;;;114.85;48.45;;;;;;;;;;5051195;28;20013;-89
2021/07/04 07:25:16;;;;;;;101.38;45.28;;;;;;;;;;5052051;28;20025;-90
2021/07/04 07:27:42;;;;;;;108.88;46.60;;;;;;;;;;5057055;28;20025;-91
2021/07/04 07:30:08;;;;;;;112.32;45.10;;;;;;;;;;5052263;28;20047;-90
2021/07/04 07:32:34;;;;;;;116.68;45.42;;;;;;;;;;5075694;28;20028;-89
2021/07/04 07:34:59;;;;;;;109.43;44.00;;;;;;;;;;5053959;28;20016;-89
2021/07/04 07:37:26;;;;;;;89.28;39.72;;;;;;;;;;5083717;28;20461;-90
2021/07/04 07:39:51;;;;;;;98.80;42.63;;;;;;;;;;5048479;28;20032;-90
2021/07/04 07:42:17;;;;;;;96.55;42.15;;;;;;;;;;5052061;28;20042;-90
2021/07/04 07:44:42;;;;;;;110.97;45.30;;;;;;;;;;5057042;28;20492;-87
2021/07/04 07:47:09;;;;;;;104.35;43.78;;;;;;;;;;5059414;28;20013;-89
2021/07/04 07:49:34;;;;;;;100.45;43.88;;;;;;;;;;5091443;28;20066;-87
2021/07/04 07:51:59;;;;;;;78.30;33.38;;;;;;;;;;5046327;28;20095;-88
2021/07/04 07:54:25;;;;;;;76.90;35.08;;;;;;;;;;5059064;28;20021;-88
2021/07/04 07:56:50;;;;;;;92.57;39.92;;;;;;;;;;5049413;28;20025;-89
2021/07/04 07:59:16;;;;;;;101.68;42.13;;;;;;;;;;5055315;28;20020;-89
2021/07/04 08:01:41;;;;;;;111.40;45.95;;;;;;;;;;5064333;28;20114;-87
2021/07/04 08:04:06;;;;;;;89.00;36.40;;;;;;;;;;5054320;28;20486;-87
2021/07/04 08:06:32;;;;;;;104.88;41.67;;;;;;;;;;5052521;28;20017;-89
2021/07/04 08:08:57;;;;;;;114.35;44.30;;;;;;;;;;5055947;28;20470;-88
2021/07/04 08:11:22;;;;;;;114.18;43.92;;;;;;;;;;5085385;28;20021;-86
2021/07/04 08:13:47;;;;;;;99.20;42.80;;;;;;;;;;5060394;28;20460;-86
2021/07/04 08:16:16;;;;;;;100.30;41.38;;;;;;;;;;5056998;28;20020;-86
2021/07/04 08:18:41;;;;;;;91.00;39.67;;;;;;;;;;5083666;28;20029;-86
2021/07/04 08:21:06;;;;;;;99.05;37.80;;;;;;;;;;5054649;28;20472;-86
2021/07/04 08:23:31;;;;;;;70.38;30.42;;;;;;;;;;5088442;28;20025;-85
2021/07/04 08:25:57;;;;;;;84.45;37.85;;;;;;;;;;5047477;28;20029;-85
2021/07/04 08:28:22;;;;;;;83.30;37.00;;;;;;;;;;5053017;28;20050;-86
2021/07/04 08:30:47;;;;;;;75.22;35.33;;;;;;;;;;5050425;28;20468;-86
2021/07/04 08:33:13;;;;;;;70.30;31.42;;;;;;;;;;5053575;28;20055;-85
2021/07/04 08:35:38;;;;;;;62.67;29.23;;;;;;;;;;5052457;28;20144;-85
2021/07/04 08:38:03;;;;;;;74.07;34.97;;;;;;;;;;5063534;28;20387;-85
2021/07/04 08:40:29;;;;;;;68.07;29.88;;;;;;;;;;5056126;28;20048;-86
2021/07/04 08:42:54;;;;;;;69.82;33.08;;;;;;;;;;5079634;28;20025;-86
2021/07/04 08:45:19;;;;;;;77.65;35.70;;;;;;;;;;5053202;28;20161;-85
2021/07/04 08:47:44;;;;;;;81.53;35.67;;;;;;;;;;5054303;28;20027;-85
2021/07/04 08:50:12;;;;;;;89.57;37.97;;;;;;;;;;5055312;28;20013;-85
2021/07/04 08:52:39;;;;;;;74.25;30.42;;;;;;;;;;5051750;28;20044;-86
2021/07/04 08:55:04;;;;;;;64.18;29.23;;;;;;;;;;5055195;28;20045;-85
2021/07/04 08:57:30;;;;;;;56.47;27.17;;;;;;;;;;5053970;28;20459;-86
2021/07/04 08:59:55;;;;;;;34.95;19.42;;;;;;;;;;5063035;28;20385;-86
2021/07/04 09:02:34;;;;;;;46.78;21.90;;;;;;;;;;5053711;28;20525;-86
2021/07/04 09:05:01;;;;;;;61.78;27.98;;;;;;;;;;5053968;28;20029;-86
2021/07/04 09:07:30;;;;;;;57.88;29.85;;;;;;;;;;5054667;28;20528;-86
2021/07/04 09:09:57;;;;;;;64.10;28.70;;;;;;;;;;5087307;28;20028;-86
2021/07/04 09:12:33;;;;;;;53.55;25.25;;;;;;;;;;5053233;28;20033;-86
2021/07/04 09:15:06;;;;;;;51.55;24.88;;;;;;;;;;5053687;28;20027;-86
2021/07/04 09:17:33;;;;;;;71.63;30.63;;;;;;;;;;5053713;28;20029;-86
2021/07/04 09:19:59;;;;;;;69.80;30.02;;;;;;;;;;5087196;28;20486;-85
2021/07/04 09:22:26;;;;;;;73.03;32.42;;;;;;;;;;5052928;28;20025;-86
2021/07/04 09:24:51;;;;;;;82.32;34.72;;;;;;;;;;5046480;28;20108;-86
2021/07/04 09:27:16;;;;;;;78.60;32.20;;;;;;;;;;5052781;28;20471;-86
2021/07/04 09:29:43;;;;;;;69.82;29.70;;;;;;;;;;5040037;28;20022;-86
2021/07/04 09:32:10;;;;;;;63.70;30.27;;;;;;;;;;5052988;28;20068;-85
2021/07/04 09:34:35;;;;;;;59.53;25.27;;;;;;;;;;5087025;28;20021;-85
2021/07/04 09:37:01;;;;;;;48.67;20.98;;;;;;;;;;5052359;28;20021;-85
2021/07/04 09:39:26;;;;;;;41.00;18.65;;;;;;;;;;5053056;28;20025;-86
2021/07/04 09:42:01;;;;;;;27.98;15.95;;;;;;;;;;5052639;28;20021;-86
2021/07/04 09:44:27;;;;;;;30.58;15.82;;;;;;;;;;5043253;28;20115;-87
2021/07/04 09:47:11;;;;;;;29.30;15.43;;;;;;;;;;5086487;28;20384;-87
2021/07/04 09:49:36;;;;;;;35.85;15.48;;;;;;;;;;5085138;28;20036;-86
2021/07/04 09:52:30;;;;;;;38.38;16.55;;;;;;;;;;5053010;28;20017;-86
2021/07/04 09:55:05;;;;;;;31.67;16.67;;;;;;;;;;5052482;28;20468;-86
2021/07/04 09:57:49;;;;;;;32.58;16.23;;;;;;;;;;5067691;28;20025;-86
2021/07/04 10:00:15;;;;;;;27.42;13.63;;;;;;;;;;5053367;28;20025;-87
2021/07/04 10:02:41;;;;;;;20.98;13.13;;;;;;;;;;5052872;28;20171;-86
2021/07/04 10:05:15;;;;;;;24.63;13.32;;;;;;;;;;5085278;28;20071;-87
2021/07/04 10:07:41;;;;;;;24.52;13.00;;;;;;;;;;5059170;28;20521;-86
2021/07/04 10:10:07;;;;;;;24.27;13.80;;;;;;;;;;5047925;28;20060;-87
2021/07/04 10:12:32;;;;;;;34.28;16.38;;;;;;;;;;5053708;28;20021;-86
2021/07/04 10:14:57;;;;;;;31.95;18.17;;;;;;;;;;5051906;28;20017;-87
2021/07/04 10:17:27;;;;;;;40.78;19.13;;;;;;;;;;5051902;28;20025;-87
2021/07/04 10:19:53;;;;;;;38.42;20.73;;;;;;;;;;5048590;28;20085;-87
2021/07/04 10:22:19;;;;;;;48.53;23.27;;;;;;;;;;5052707;28;20021;-87
2021/07/04 10:24:44;;;;;;;35.50;19.55;;;;;;;;;;5052195;28;20031;-87
2021/07/04 10:27:12;;;;;;;31.13;18.00;;;;;;;;;;5052933;28;20025;-86
2021/07/04 10:29:37;;;;;;;29.48;17.30;;;;;;;;;;5045682;28;20060;-87
2021/07/04 10:32:06;;;;;;;33.45;17.75;;;;;;;;;;5051075;28;20048;-87
2021/07/04 10:34:39;;;;;;;34.95;18.25;;;;;;;;;;5078908;28;20014;-87
2021/07/04 10:37:06;;;;;;;33.97;17.73;;;;;;;;;;5051011;28;20016;-87
2021/07/04 10:39:33;;;;;;;22.88;14.63;;;;;;;;;;5085162;28;20071;-87
2021/07/04 10:42:00;;;;;;;34.10;18.00;;;;;;;;;;5050043;28;20464;-87
2021/07/04 10:44:48;;;;;;;42.03;22.83;;;;;;;;;;5055443;28;20090;-87
2021/07/04 10:47:29;;;;;;;37.25;19.15;;;;;;;;;;5084997;28;20017;-87
2021/07/04 10:50:06;;;;;;;27.13;14.35;;;;;;;;;;5080795;28;20029;-87
2021/07/04 10:52:34;;;;;;;17.55;9.32;;;;;;;;;;5050946;28;20029;-87
2021/07/04 10:55:00;;;;;;;20.75;12.93;;;;;;;;;;5051795;28;20021;-87
2021/07/04 10:57:30;;;;;;;29.98;18.52;;;;;;;;;;5081216;28;20083;-87
2021/07/04 11:00:04;;;;;;;27.77;16.48;;;;;;;;;;5070261;28;20021;-87
2021/07/04 11:02:36;;;;;;;25.15;15.27;;;;;;;;;;5051104;28;20353;-87
2021/07/04 11:05:01;;;;;;;19.27;12.68;;;;;;;;;;5058156;28;20108;-87
2021/07/04 11:07:46;;;;;;;15.90;9.40;;;;;;;;;;5050666;28;20041;-87
2021/07/04 11:10:16;;;;;;;12.75;8.15;;;;;;;;;;5074208;28;20483;-87
2021/07/04 11:12:41;;;;;;;10.85;7.78;;;;;;;;;;5050170;28;20024;-87
2021/07/04 11:15:12;;;;;;;16.77;9.18;;;;;;;;;;5050217;28;20095;-87
2021/07/04 11:18:00;;;;;;;21.95;10.57;;;;;;;;;;5050563;28;20021;-87
2021/07/04 11:20:41;;;;;;;28.52;13.15;;;;;;;;;;5051857;28;20033;-86
2021/07/04 11:23:07;;;;;;;11.75;5.45;;;;;;;;;;5050490;28;20048;-86
2021/07/04 11:25:38;;;;;;;2.03;0.77;;;;;;;;;;5051247;28;20086;-86
2021/07/04 11:28:13;;;;;;;1.97;0.70;;;;;;;;;;5052135;28;20029;-86
2021/07/04 11:30:38;;;;;;;1.70;0.50;;;;;;;;;;5050699;28;20055;-86
2021/07/04 11:33:19;;;;;;;2.78;0.68;;;;;;;;;;5050193;28;20024;-87
2021/07/04 11:35:44;;;;;;;5.60;0.88;;;;;;;;;;5047396;28;20040;-86
2021/07/04 11:38:19;;;;;;;7.20;0.80;;;;;;;;;;5047304;28;20472;-86
2021/07/04 11:40:45;;;;;;;11.27;0.70;;;;;;;;;;5047734;28;20017;-86
2021/07/04 11:43:13;;;;;;;8.73;1.02;;;;;;;;;;5049048;28;20373;-87
2021/07/04 11:45:38;;;;;;;6.45;0.82;;;;;;;;;;5051153;28;20032;-88
2021/07/04 11:48:04;;;;;;;2.58;0.60;;;;;;;;;;5052069;28;20392;-87
2021/07/04 11:50:31;;;;;;;2.50;0.55;;;;;;;;;;5050904;28;20021;-90
2021/07/04 11:53:03;;;;;;;2.28;0.45;;;;;;;;;;5055480;28;20044;-89
2021/07/04 11:55:30;;;;;;;1.83;0.40;;;;;;;;;;5060016;28;20055;-87
2021/07/04 11:57:55;;;;;;;3.72;0.30;;;;;;;;;;5055730;28;20032;-89
2021/07/04 12:00:20;;;;;;;3.35;0.57;;;;;;;;;;5090295;28;20059;-89
2021/07/04 12:02:51;;;;;;;5.63;0.40;;;;;;;;;;5051545;28;20037;-87
2021/07/04 12:05:16;;;;;;;3.53;0.40;;;;;;;;;;5054704;28;20021;-87
2021/07/04 12:07:42;;;;;;;2.35;0.77;;;;;;;;;;5052631;28;20074;-87
2021/07/04 12:10:07;;;;;;;2.90;0.47;;;;;;;;;;5054305;28;20020;-89
2021/07/04 12:12:37;;;;;;;11.55;0.60;;;;;;;;;;5053828;28;20083;-89
2021/07/04 12:15:05;;;;;;;6.15;0.50;;;;;;;;;;5054101;28;20025;-88
2021/07/04 12:17:38;;;;;;;1.15;0.50;;;;;;;;;;5056497;28;20059;-89
2021/07/04 12:20:08;;;;;;;1.13;0.40;;;;;;;;;;5057679;28;20020;-89
2021/07/04 12:22:35;;;;;;;8.20;0.70;;;;;;;;;;5057800;28;20511;-90
2021/07/04 12:25:03;;;;;;;1.42;0.35;;;;;;;;;;5054724;28;20021;-90
2021/07/04 12:27:32;;;;;;;5.75;0.70;;;;;;;;;;5054794;28;20017;-90
2021/07/04 12:29:58;;;;;;;2.10;0.55;;;;;;;;;;5048195;28;20041;-89
2021/07/04 12:32:24;;;;;;;1.35;0.50;;;;;;;;;;5054645;28;20017;-89
2021/07/04 12:34:49;;;;;;;2.42;0.57;;;;;;;;;;5056678;28;20025;-87
2021/07/04 12:37:15;;;;;;;1.25;0.95;;;;;;;;;;5057479;28;20021;-89
2021/07/04 12:39:46;;;;;;;2.78;1.35;;;;;;;;;;5059397;28;20031;-89
2021/07/04 12:42:21;;;;;;;2.15;0.50;;;;;;;;;;5061211;28;20071;-90
2021/07/04 12:45:20;;;;;;;2.53;0.80;;;;;;;;;;5050122;28;20021;-89
2021/07/04 12:47:57;;;;;;;1.38;0.68;;;;;;;;;;5074436;28;20425;-89
2021/07/04 12:50:22;;;;;;;2.78;0.60;;;;;;;;;;5054125;28;20020;-88
2021/07/04 12:52:57;;;;;;;2.38;1.10;;;;;;;;;;5066465;28;20016;-88
2021/07/04 12:55:35;;;;;;;3.95;0.80;;;;;;;;;;5057104;28;20021;-89
2021/07/04 12:58:17;;;;;;;0.57;0.57;;;;;;;;;;5057267;28;20384;-88
2021/07/04 13:00:43;;;;;;;;;;;;;;;;;;5050604;28;20025;-89
2021/07/04 13:03:08;;;;;;;2.10;0.95;;;;;;;;;;5051576;28;19915;-89
2021/07/04 13:05:37;;;;;;;2.20;0.93;;;;;;;;;;5053312;28;20387;-89
2021/07/04 13:08:10;;;;;;;2.03;0.82;;;;;;;;;;5043428;28;20032;-88
2021/07/04 13:10:36;;;;;;;1.58;0.90;;;;;;;;;;5054291;28;20028;-88
2021/07/04 13:13:07;;;;;;;1.70;1.00;;;;;;;;;;5050415;28;20025;-89
2021/07/04 13:15:32;;;;;;;3.73;1.20;;;;;;;;;;5052532;28;20055;-89
2021/07/04 13:17:59;;;;;;;1.17;1.05;;;;;;;;;;5053536;28;20051;-89
2021/07/04 13:20:25;;;;;;;3.08;1.30;;;;;;;;;;5053067;28;20361;-89
2021/07/04 13:22:51;;;;;;;5.05;1.50;;;;;;;;;;5053241;28;20033;-89
2021/07/04 13:25:17;;;;;;;1.88;1.38;;;;;;;;;;5053044;28;20107;-90
2021/07/04 13:27:48;;;;;;;4.68;1.65;;;;;;;;;;5054446;28;20045;-91
2021/07/04 13:30:14;;;;;;;2.80;1.58;;;;;;;;;;5055283;28;20037;-91
2021/07/04 13:33:07;;;;;;;4.47;1.50;;;;;;;;;;5053644;28;20024;-89
2021/07/04 13:35:33;;;;;;;4.60;2.17;;;;;;;;;;5053633;28;20472;-90
2021/07/04 13:38:03;;;;;;;6.90;2.33;;;;;;;;;;5060640;28;20509;-89
2021/07/04 13:40:29;;;;;;;6.65;2.10;;;;;;;;;;5053503;28;20021;-89
2021/07/04 13:42:55;;;;;;;5.70;2.50;;;;;;;;;;5054450;28;20396;-88
2021/07/04 13:45:30;;;;;;;6.05;2.92;;;;;;;;;;5055508;28;20033;-92
2021/07/04 13:47:57;;;;;;;4.85;2.50;;;;;;;;;;5053787;28;20484;-90
2021/07/04 13:50:43;;;;;;;2.88;2.00;;;;;;;;;;5078744;28;20048;-88
2021/07/04 13:53:10;;;;;;;7.38;2.60;;;;;;;;;;5056638;28;20493;-91
2021/07/04 13:55:35;;;;;;;5.93;2.97;;;;;;;;;;5052598;28;20059;-90
2021/07/04 13:58:01;;;;;;;3.88;2.47;;;;;;;;;;5050048;28;20029;-91
2021/07/04 14:00:26;;;;;;;2.72;2.30;;;;;;;;;;5051883;28;20096;-89
2021/07/04 14:02:52;;;;;;;3.95;2.25;;;;;;;;;;5049505;28;20029;-90
2021/07/04 14:05:17;;;;;;;6.70;2.40;;;;;;;;;;5050596;28;20043;-91
2021/07/04 14:07:42;;;;;;;6.35;2.42;;;;;;;;;;5050306;28;20384;-90
2021/07/04 14:10:08;;;;;;;4.32;3.00;;;;;;;;;;5044127;28;20082;-91
2021/07/04 14:12:34;;;;;;;4.68;2.30;;;;;;;;;;5050394;28;20526;-90
2021/07/04 14:14:59;;;;;;;4.22;2.47;;;;;;;;;;5053415;28;20020;-91
2021/07/04 14:17:26;;;;;;;3.30;2.45;;;;;;;;;;5049138;28;20021;-92
2021/07/04 14:19:53;;;;;;;4.22;2.80;;;;;;;;;;5049181;28;20021;-92